메인 페이지
METAR-TAF:

METAR-TAF

공항 :

리스본, 포르투갈

리스본 포르텔라 국제공항

위도: 38-46N, 경도: 009-08W, 고도: 114m

현재 날씨관측

예보는 37분 전, 09:00시(UTC)에 발표되었습니다.
북북동6kt풍과 동북동풍을 오가는
온도 10°C
습도 71%
기압 1024 hPa
시정 10km 이상
1500m 미만 상공 구름 및 적란운 없음

METAR: LPPT 180900Z 03006KT 360V060 CAVOK 10/05 Q1024

시각: 09:37 (09:37 UTC)

예보

예보는 4 시간 37분 전, 05:00시(UTC)에 발표되었습니다.
예보 대상 시간: 18일 06시부터 19일 12시까지 (UTC)
북동8kt
시정 10km 이상
1500m 미만 상공 구름 및 적란운 없음
전환 중
18일 14시부터 18일 16시까지 (UTC)
북북서13kt
전환 중
18일 20시부터 18일 22시까지 (UTC)
북북동8kt
시정 10km 이상
고도 1200ft 상공 구름 조금
전환 중
19일 09시부터 19일 12시까지 (UTC)
12kt
시정 10km 이상
1500m 미만 상공 구름 및 적란운 없음

TAF: LPPT 180500Z 1806/1912 05008KT CAVOK BECMG 1814/1816 34013KT BECMG 1820/1822 02008KT 9999 FEW012 BECMG 1909/1912 35012KT CAVOK

4,000개 이상의 공항 관측 자료 및 예보 (METAR 및 TAF 보고).

지도상에서 검색 가능한 기상관측소가 노란 점과 빨간 점으로 표시되어 있습니다.

기상관측소 명을 보려면 표시 위로 마우스를 이동하세요.

날씨 관측과 예보를 보려면 클릭하세요.

지도 변경 : 확대하려면 엑스 표시가 있는 녹색 버튼, 축소하려면 빼기 표시가 있는 녹색 버튼, 다음 페이지의 지도를 보려면 녹색 화살표를 클릭하세요.


METAR-TAF: